createdAt,value
2018-12-21T00:00:56.261Z,158.17
2018-12-21T00:03:24.659Z,160.07
2018-12-21T00:05:53.198Z,161.03
2018-12-21T00:08:21.633Z,162.23
2018-12-21T00:10:50.022Z,159.70
2018-12-21T00:13:18.369Z,160.57
2018-12-21T00:15:47.315Z,161.40
2018-12-21T00:18:15.705Z,165.40
2018-12-21T00:20:44.147Z,160.27
2018-12-21T00:23:12.511Z,160.50
2018-12-21T00:25:41.573Z,162.53
2018-12-21T00:28:10.082Z,165.30
2018-12-21T00:30:38.485Z,164.23
2018-12-21T00:33:12.204Z,160.47
2018-12-21T00:35:45.848Z,164.47
2018-12-21T00:38:20.174Z,163.27
2018-12-21T00:40:54.083Z,162.47
2018-12-21T00:43:31.520Z,156.77
2018-12-21T00:46:03.489Z,159.53
2018-12-21T00:48:32.003Z,159.10
2018-12-21T00:51:00.777Z,160.73
2018-12-21T00:53:29.824Z,163.40
2018-12-21T00:55:58.433Z,158.73
2018-12-21T00:58:26.851Z,157.90
2018-12-21T01:00:55.326Z,159.00
2018-12-21T01:03:24.033Z,158.43
2018-12-21T01:05:52.446Z,160.93
2018-12-21T01:08:20.807Z,164.33
2018-12-21T01:10:49.574Z,163.93
2018-12-21T01:13:17.966Z,162.63
2018-12-21T01:15:46.371Z,163.37
2018-12-21T01:18:14.748Z,165.07
2018-12-21T01:20:43.117Z,159.60
2018-12-21T01:23:11.461Z,161.47
2018-12-21T01:25:39.874Z,161.83
2018-12-21T01:28:08.209Z,160.60
2018-12-21T01:30:37.120Z,157.73
2018-12-21T01:33:05.478Z,161.50
2018-12-21T01:35:33.855Z,160.23
2018-12-21T01:38:02.238Z,161.43
2018-12-21T01:40:31.198Z,159.23
2018-12-21T01:42:59.541Z,159.63
2018-12-21T01:45:28.467Z,159.93
2018-12-21T01:47:56.942Z,159.70
2018-12-21T06:31:56.831Z,148.37
2018-12-21T06:34:26.207Z,148.53
2018-12-21T06:36:55.271Z,152.70
2018-12-21T06:39:23.787Z,157.03
2018-12-21T06:41:52.184Z,149.33
2018-12-21T06:44:20.873Z,145.90
2018-12-21T06:46:49.534Z,151.93
2018-12-21T06:49:17.897Z,154.37
2018-12-21T06:51:46.245Z,150.70
2018-12-21T06:54:14.890Z,149.87
2018-12-21T06:56:43.496Z,151.40
2018-12-21T06:59:11.961Z,151.17
2018-12-21T07:01:41.188Z,153.93
2018-12-21T07:04:09.877Z,152.57
2018-12-21T07:06:38.302Z,150.67
2018-12-21T07:09:07.805Z,151.57
2018-12-21T07:11:36.151Z,150.37
2018-12-21T07:14:04.799Z,156.60
2018-12-21T07:16:33.910Z,154.97
2018-12-21T07:19:02.528Z,156.13
2018-12-21T07:21:31.505Z,151.07
2018-12-21T07:24:00.175Z,152.03
2018-12-21T07:26:28.948Z,151.53
2018-12-21T07:28:57.393Z,150.13
2018-12-21T07:31:25.781Z,151.03
2018-12-21T07:33:54.135Z,153.20
2018-12-21T07:36:22.815Z,151.60
2018-12-21T07:38:51.300Z,150.03
2018-12-21T07:41:19.705Z,151.60
2018-12-21T07:43:48.369Z,150.63
2018-12-21T07:46:17.099Z,153.80
2018-12-21T07:48:45.671Z,147.27
2018-12-21T07:51:14.049Z,153.77
2018-12-21T07:53:42.428Z,155.50
2018-12-21T07:56:11.239Z,153.43
2018-12-21T07:58:39.626Z,152.90
2018-12-21T08:01:07.964Z,153.17
2018-12-21T08:03:36.682Z,153.03
2018-12-21T08:06:05.286Z,149.87
2018-12-21T08:08:33.909Z,157.50
2018-12-21T08:11:02.722Z,150.37
2018-12-21T08:13:31.870Z,154.20
2018-12-21T08:16:00.266Z,170.27
2018-12-21T08:18:28.807Z,149.43
2018-12-21T08:20:57.771Z,150.87
2018-12-21T08:23:26.425Z,151.40
2018-12-21T08:25:55.929Z,150.63
2018-12-21T08:28:24.564Z,149.97
2018-12-21T08:30:52.963Z,148.50
2018-12-21T08:33:22.534Z,152.03
2018-12-21T08:35:50.902Z,150.37
2018-12-21T08:38:19.292Z,149.60
2018-12-21T08:40:47.981Z,152.33
2018-12-21T08:43:16.442Z,150.27
2018-12-21T08:45:45.447Z,153.33
2018-12-21T08:48:14.250Z,151.97
2018-12-21T08:50:44.598Z,149.47
2018-12-21T08:53:13.585Z,175.27
2018-12-21T08:55:42.229Z,154.97
2018-12-21T08:58:10.981Z,156.63
2018-12-21T09:00:39.996Z,152.33
2018-12-21T09:03:08.751Z,156.30
2018-12-21T09:05:37.270Z,153.17
2018-12-21T09:08:05.987Z,155.47
2018-12-21T09:10:34.669Z,154.03
2018-12-21T09:13:03.736Z,154.50
2018-12-21T09:15:32.328Z,163.50
2018-12-21T09:18:01.210Z,152.43
2018-12-21T09:20:29.752Z,159.13
2018-12-21T09:22:58.254Z,164.60
2018-12-21T09:25:26.981Z,169.97
2018-12-21T09:27:55.307Z,161.10
2018-12-21T09:30:23.754Z,149.90
2018-12-21T09:32:52.384Z,159.90
2018-12-21T09:35:20.800Z,154.40
2018-12-21T09:37:49.795Z,150.70
2018-12-21T09:40:19.017Z,150.87
2018-12-21T09:42:47.398Z,151.33
2018-12-21T09:45:17.324Z,152.70
2018-12-21T09:47:45.681Z,151.43
2018-12-21T09:50:14.989Z,161.77
2018-12-21T09:52:44.127Z,151.93
2018-12-21T09:55:12.480Z,150.53
2018-12-21T09:57:41.366Z,153.23
2018-12-21T10:00:11.926Z,165.17
2018-12-21T10:02:41.271Z,155.33
2018-12-21T10:05:14.503Z,151.27
2018-12-21T10:07:43.682Z,154.07
2018-12-21T10:10:12.828Z,155.03
2018-12-21T10:12:41.601Z,160.17
2018-12-21T10:15:10.698Z,159.30
2018-12-21T10:17:39.032Z,151.90
2018-12-21T10:20:08.876Z,156.97
2018-12-21T10:22:37.351Z,158.87
2018-12-21T10:25:06.616Z,155.53
2018-12-21T10:27:35.591Z,151.73
2018-12-21T10:30:04.379Z,150.47
2018-12-21T10:32:32.758Z,154.33
2018-12-21T10:35:01.462Z,154.23
2018-12-21T10:37:29.901Z,150.97
2018-12-21T10:39:58.860Z,152.53
2018-12-21T10:42:27.603Z,150.90
2018-12-21T10:44:56.445Z,150.47
2018-12-21T10:47:25.190Z,150.03
2018-12-21T10:49:54.268Z,153.37
2018-12-21T10:52:23.562Z,176.87
2018-12-21T10:54:52.044Z,174.20
2018-12-21T10:57:20.715Z,169.87
2018-12-21T10:59:49.096Z,158.27
2018-12-21T11:02:17.445Z,168.83
2018-12-21T11:04:45.815Z,163.80
2018-12-21T11:07:14.179Z,161.63
2018-12-21T11:09:42.904Z,162.03
2018-12-21T11:12:11.652Z,162.63
2018-12-21T11:14:40.666Z,163.40
2018-12-21T11:17:09.061Z,165.67
2018-12-21T11:19:37.560Z,174.00
2018-12-21T11:22:05.936Z,168.00
2018-12-21T11:24:35.671Z,162.87
2018-12-21T11:27:04.278Z,164.43
2018-12-21T11:29:32.650Z,161.43
2018-12-21T11:32:01.369Z,163.90
2018-12-21T11:34:29.698Z,170.90
2018-12-21T11:36:58.954Z,170.60
2018-12-21T11:39:27.642Z,164.53
2018-12-21T11:41:56.058Z,158.73
2018-12-21T11:44:24.385Z,164.93
2018-12-21T11:46:52.755Z,171.13
2018-12-21T11:49:21.183Z,166.03
2018-12-21T11:51:49.523Z,174.13
2018-12-21T11:54:18.403Z,175.03
2018-12-21T11:56:46.768Z,164.20
2018-12-21T11:59:15.647Z,166.73
2018-12-21T12:01:44.062Z,162.93
2018-12-21T12:04:12.414Z,163.10
2018-12-21T12:06:40.740Z,161.77
2018-12-21T12:09:09.161Z,164.70
2018-12-21T12:11:37.478Z,169.60
2018-12-21T12:14:06.313Z,165.00
2018-12-21T12:16:34.883Z,163.60
2018-12-21T12:19:03.259Z,159.77
2018-12-21T12:21:31.608Z,171.47
2018-12-21T12:23:59.986Z,162.47
2018-12-21T12:26:28.320Z,164.43
2018-12-21T12:28:56.713Z,161.57
2018-12-21T12:31:25.069Z,163.07
2018-12-21T12:33:53.571Z,164.20
2018-12-21T12:36:21.905Z,165.17
2018-12-21T12:38:50.268Z,166.83
2018-12-21T12:41:18.671Z,170.27
2018-12-21T12:43:47.683Z,166.57
2018-12-21T12:46:16.274Z,166.27
2018-12-21T12:48:45.056Z,165.47
2018-12-21T12:51:13.410Z,169.97
2018-12-21T12:53:41.851Z,168.97
2018-12-21T12:56:10.949Z,163.50
2018-12-21T12:58:39.867Z,162.03
2018-12-21T13:01:08.352Z,169.90
2018-12-21T13:03:36.748Z,164.10
2018-12-21T13:06:05.912Z,166.57
2018-12-21T13:08:34.506Z,164.67
2018-12-21T13:11:02.848Z,158.63
2018-12-21T13:13:31.315Z,157.27
2018-12-21T13:15:59.699Z,162.17
2018-12-21T13:18:28.133Z,164.70
2018-12-21T13:20:56.565Z,162.33
2018-12-21T13:23:24.959Z,164.40
2018-12-21T13:25:53.325Z,163.27
2018-12-21T13:28:22.179Z,161.63
2018-12-21T13:30:50.533Z,174.17
2018-12-21T13:33:19.028Z,173.63
2018-12-21T13:35:47.398Z,171.27
2018-12-21T13:38:15.846Z,174.33
2018-12-21T13:40:44.213Z,172.33
2018-12-21T13:43:12.595Z,175.70
2018-12-21T13:45:40.974Z,171.87
2018-12-21T13:48:09.335Z,173.07
2018-12-21T13:50:37.712Z,174.03
2018-12-21T13:53:06.057Z,170.30
2018-12-21T13:55:34.468Z,170.43
2018-12-21T13:58:02.847Z,169.53
2018-12-21T14:00:31.198Z,171.37
2018-12-21T14:02:59.707Z,174.17
2018-12-21T14:05:28.092Z,173.10
2018-12-21T14:07:56.621Z,171.80
2018-12-21T14:10:25.041Z,169.60
2018-12-21T14:12:53.371Z,171.03
2018-12-21T14:15:21.774Z,173.23
2018-12-21T14:17:50.220Z,171.93
2018-12-21T14:20:19.047Z,173.23
2018-12-21T14:22:47.411Z,180.13
2018-12-21T14:25:16.465Z,176.80
2018-12-21T14:27:44.838Z,170.97
2018-12-21T14:30:13.314Z,175.77
2018-12-21T14:32:41.707Z,173.83
2018-12-21T14:35:10.091Z,175.30
2018-12-21T14:37:38.501Z,173.00
2018-12-21T14:40:06.994Z,174.80
2018-12-21T14:42:35.375Z,173.57
2018-12-21T14:45:03.805Z,172.70
2018-12-21T14:47:32.202Z,171.77
2018-12-21T14:50:00.561Z,172.30
2018-12-21T14:52:28.931Z,172.13
2018-12-21T14:54:57.287Z,173.37
2018-12-21T14:57:26.197Z,186.77
2018-12-21T14:59:54.710Z,175.63
2018-12-21T15:02:23.309Z,169.83
2018-12-21T15:04:51.663Z,172.83
2018-12-21T15:07:20.063Z,173.30
2018-12-21T15:09:48.795Z,174.73
2018-12-21T15:12:17.763Z,177.83
2018-12-21T15:14:46.264Z,180.60
2018-12-21T15:17:14.620Z,177.13
2018-12-21T15:19:43.570Z,181.25
2018-12-21T15:22:11.981Z,185.63
2018-12-21T15:24:40.387Z,180.40
2018-12-21T15:27:09.051Z,194.00
2018-12-21T15:29:37.549Z,183.60
2018-12-21T15:32:05.907Z,178.30
2018-12-21T15:34:34.399Z,183.40
2018-12-21T15:37:02.770Z,174.13
2018-12-21T15:39:31.283Z,178.63
2018-12-21T15:41:59.701Z,180.43
2018-12-21T15:44:28.108Z,172.87
2018-12-21T15:46:56.480Z,172.93
2018-12-21T15:49:24.790Z,174.40
2018-12-21T15:51:53.143Z,178.90
2018-12-21T15:54:21.509Z,177.37
2018-12-21T15:56:49.906Z,186.93
2018-12-21T15:59:18.295Z,176.47
2018-12-21T16:01:46.673Z,178.73
2018-12-21T16:04:15.030Z,174.70
2018-12-21T16:06:43.554Z,177.50
2018-12-21T16:09:12.775Z,181.50
2018-12-21T16:11:41.128Z,187.87
2018-12-21T16:14:09.494Z,180.83
2018-12-21T16:16:37.908Z,176.47
2018-12-21T16:19:06.237Z,190.87
2018-12-21T16:21:34.633Z,175.50
2018-12-21T16:24:06.772Z,174.87
2018-12-21T16:26:33.797Z,175.23
2018-12-21T16:29:02.174Z,172.50
2018-12-21T16:31:30.544Z,171.23
2018-12-21T16:33:59.818Z,175.50
2018-12-21T16:36:28.126Z,177.23
2018-12-21T16:38:56.582Z,179.60
2018-12-21T16:41:24.963Z,180.13
2018-12-21T16:43:53.329Z,173.20
2018-12-21T16:46:21.990Z,176.77
2018-12-21T16:48:50.925Z,186.37
2018-12-21T16:51:19.389Z,174.00
2018-12-21T16:53:47.852Z,175.17
2018-12-21T16:56:16.157Z,178.47
2018-12-21T16:58:44.574Z,178.10
2018-12-21T17:01:13.048Z,185.97
2018-12-21T17:03:41.427Z,176.47
2018-12-21T17:06:09.757Z,172.07
2018-12-21T17:08:38.157Z,171.43
2018-12-21T17:11:06.531Z,173.43
2018-12-21T17:13:34.907Z,177.33
2018-12-21T17:16:03.268Z,175.00
2018-12-21T17:18:32.001Z,174.20
2018-12-21T17:21:00.348Z,175.33
2018-12-21T17:23:29.745Z,172.83
2018-12-21T17:25:58.115Z,172.83
2018-12-21T17:28:27.029Z,172.90
2018-12-21T17:30:55.400Z,176.47
2018-12-21T17:33:23.782Z,203.20
2018-12-21T17:35:52.267Z,179.87
2018-12-21T17:38:20.891Z,172.10
2018-12-21T17:40:49.439Z,177.60
2018-12-21T17:43:18.755Z,181.90
2018-12-21T17:45:47.147Z,172.47
2018-12-21T17:48:15.570Z,177.00
2018-12-21T17:50:43.995Z,180.13
2018-12-21T17:53:12.533Z,174.40
2018-12-21T17:55:40.856Z,176.13
2018-12-21T17:58:09.408Z,182.97
2018-12-21T18:00:38.406Z,174.07
2018-12-21T18:03:08.554Z,173.70
2018-12-21T18:05:37.392Z,172.83
2018-12-21T18:08:05.791Z,171.67
2018-12-21T18:10:34.243Z,171.93
2018-12-21T18:13:03.151Z,167.60
2018-12-21T18:15:31.616Z,179.33
2018-12-21T18:18:00.528Z,179.33
2018-12-21T18:20:28.880Z,172.50
2018-12-21T18:25:26.648Z,175.63
2018-12-21T18:27:57.346Z,172.27
2018-12-21T18:30:31.611Z,171.87
2018-12-21T18:33:10.251Z,175.60
2018-12-21T18:35:32.727Z,181.17
2018-12-21T18:38:03.598Z,176.63
2018-12-21T18:40:32.667Z,175.60
2018-12-21T18:43:01.014Z,173.03
2018-12-21T18:45:29.475Z,173.13
2018-12-21T18:47:57.866Z,172.57
2018-12-21T18:50:27.481Z,172.13
2018-12-21T18:52:55.865Z,171.17
2018-12-21T18:55:24.251Z,177.53
2018-12-21T18:57:52.821Z,172.87
2018-12-21T19:00:21.272Z,176.97
2018-12-21T19:02:49.747Z,175.73
2018-12-21T19:05:18.179Z,173.37
2018-12-21T19:07:46.602Z,172.13
2018-12-21T19:10:15.515Z,177.90
2018-12-21T19:12:43.868Z,181.63
2018-12-21T19:15:12.473Z,177.07
2018-12-21T19:17:40.836Z,177.40
2018-12-21T19:20:11.115Z,174.03
2018-12-21T19:22:40.275Z,182.63
2018-12-21T19:25:10.566Z,175.63
2018-12-21T19:27:39.091Z,183.87
2018-12-21T19:30:10.214Z,175.93
2018-12-21T19:32:39.708Z,180.80
2018-12-21T19:35:08.942Z,173.57
2018-12-21T19:37:37.385Z,172.93
2018-12-21T19:40:07.092Z,172.67
2018-12-21T19:42:35.483Z,183.90
2018-12-21T19:45:04.493Z,178.87
2018-12-21T19:47:32.869Z,172.03
2018-12-21T19:50:01.320Z,174.20
2018-12-21T19:52:29.751Z,176.97
2018-12-21T19:55:06.082Z,180.30
2018-12-21T19:57:34.592Z,171.80
2018-12-21T20:00:03.085Z,174.17
2018-12-21T20:02:31.470Z,170.57
2018-12-21T20:04:59.926Z,176.40
2018-12-21T20:07:28.621Z,174.60
2018-12-21T20:09:57.041Z,174.53
2018-12-21T20:12:25.391Z,172.43
2018-12-21T20:14:53.792Z,184.13
2018-12-21T20:17:22.096Z,173.63
2018-12-21T20:19:50.499Z,175.73
2018-12-21T20:22:18.873Z,180.40
2018-12-21T20:24:47.330Z,172.63
2018-12-21T20:27:16.614Z,173.30
2018-12-21T20:29:45.642Z,174.03
2018-12-21T20:32:14.724Z,176.43
2018-12-21T20:34:43.124Z,183.20
2018-12-21T20:37:11.554Z,181.20
2018-12-21T20:39:43.079Z,182.10
2018-12-21T20:42:11.620Z,183.40
2018-12-21T20:44:39.989Z,183.73
2018-12-21T20:47:08.745Z,173.17
2018-12-21T20:49:37.148Z,174.33
2018-12-21T20:52:05.713Z,175.30
2018-12-21T20:54:34.183Z,172.63
2018-12-21T20:57:03.701Z,174.30
2018-12-21T20:59:32.067Z,172.40
2018-12-21T21:02:00.471Z,171.93
2018-12-21T21:04:28.904Z,173.23
2018-12-21T21:06:57.317Z,173.47
2018-12-21T21:09:25.794Z,176.20
2018-12-21T21:11:54.177Z,173.73
2018-12-21T21:14:23.985Z,176.73
2018-12-21T21:16:52.356Z,176.70
2018-12-21T21:19:20.795Z,172.53
2018-12-21T21:21:49.800Z,173.33
2018-12-21T21:24:18.195Z,175.07
2018-12-21T21:26:46.555Z,178.80
2018-12-21T21:29:15.100Z,175.33
2018-12-21T21:31:46.185Z,178.37
2018-12-21T21:34:14.555Z,175.07
2018-12-21T21:36:42.973Z,180.77
2018-12-21T21:39:11.416Z,172.20
2018-12-21T21:41:39.958Z,174.50
2018-12-21T21:44:09.172Z,173.20
2018-12-21T21:46:37.537Z,174.00
2018-12-21T21:49:05.875Z,178.70
2018-12-21T21:51:34.294Z,170.87
2018-12-21T21:54:02.650Z,174.67
2018-12-21T21:56:30.985Z,181.00
2018-12-21T21:58:59.564Z,177.93
2018-12-21T22:01:27.925Z,175.07
2018-12-21T22:03:56.279Z,176.10
2018-12-21T22:06:25.335Z,175.30
2018-12-21T22:08:53.746Z,174.63
2018-12-21T22:11:22.110Z,178.40
2018-12-21T22:13:50.521Z,177.53
2018-12-21T22:16:18.912Z,174.43
2018-12-21T22:18:47.283Z,179.30
2018-12-21T22:21:15.877Z,180.23
2018-12-21T22:23:44.238Z,178.73
2018-12-21T22:26:12.616Z,176.67
2018-12-21T22:28:40.964Z,178.77
2018-12-21T22:31:09.354Z,176.43
2018-12-21T22:33:38.054Z,178.17
2018-12-21T22:36:07.360Z,170.30
2018-12-21T22:38:35.725Z,171.00
2018-12-21T22:41:04.151Z,171.63
2018-12-21T22:43:32.566Z,180.97
2018-12-21T22:46:00.963Z,188.63
2018-12-21T22:48:29.321Z,175.97
2018-12-21T22:50:57.705Z,176.63
2018-12-21T22:53:26.704Z,177.90
2018-12-21T22:55:55.083Z,176.70
2018-12-21T22:58:23.875Z,175.87
2018-12-21T23:00:52.210Z,175.50
2018-12-21T23:03:21.196Z,184.13
2018-12-21T23:05:49.580Z,175.67
2018-12-21T23:08:18.059Z,174.43
2018-12-21T23:10:47.407Z,174.53
2018-12-21T23:13:15.716Z,172.60
2018-12-21T23:15:44.126Z,173.07
2018-12-21T23:18:12.479Z,175.30
2018-12-21T23:20:40.999Z,173.63
2018-12-21T23:23:09.381Z,172.83
2018-12-21T23:25:37.769Z,174.30
2018-12-21T23:28:06.240Z,172.03
2018-12-21T23:30:34.616Z,180.40
2018-12-21T23:33:03.424Z,180.67
2018-12-21T23:35:31.863Z,177.87
2018-12-21T23:38:00.241Z,183.23
2018-12-21T23:40:29.000Z,179.63
2018-12-21T23:42:57.569Z,179.07
2018-12-21T23:45:26.332Z,179.63
2018-12-21T23:47:54.725Z,178.33
2018-12-21T23:50:23.941Z,176.83
2018-12-21T23:52:52.346Z,175.90
2018-12-21T23:55:20.721Z,175.97
2018-12-21T23:57:49.132Z,177.80
